sensor_id;sensor_type;location;lat;lon;timestamp;temperature;humidity
578;DHT22;275;48.492;9.214;2022-07-06T00:01:16;21.40;28.10
578;DHT22;275;48.492;9.214;2022-07-06T00:03:43;21.30;28.40
578;DHT22;275;48.492;9.214;2022-07-06T00:06:10;21.10;28.70
578;DHT22;275;48.492;9.214;2022-07-06T00:08:37;21.10;28.60
578;DHT22;275;48.492;9.214;2022-07-06T00:11:04;21.20;28.50
578;DHT22;275;48.492;9.214;2022-07-06T00:13:32;20.70;29.40
578;DHT22;275;48.492;9.214;2022-07-06T00:15:59;20.40;29.80
578;DHT22;275;48.492;9.214;2022-07-06T00:18:26;20.30;29.90
578;DHT22;275;48.492;9.214;2022-07-06T00:20:52;20.20;30.70
578;DHT22;275;48.492;9.214;2022-07-06T00:23:19;20.10;30.60
578;DHT22;275;48.492;9.214;2022-07-06T00:25:46;19.90;31.00
578;DHT22;275;48.492;9.214;2022-07-06T00:28:13;19.40;32.30
578;DHT22;275;48.492;9.214;2022-07-06T00:30:41;19.50;32.20
578;DHT22;275;48.492;9.214;2022-07-06T00:33:08;19.60;31.90
578;DHT22;275;48.492;9.214;2022-07-06T00:35:35;19.50;32.00
578;DHT22;275;48.492;9.214;2022-07-06T00:38:02;19.60;31.70
578;DHT22;275;48.492;9.214;2022-07-06T00:40:29;19.50;32.40
578;DHT22;275;48.492;9.214;2022-07-06T00:42:56;19.40;32.40
578;DHT22;275;48.492;9.214;2022-07-06T00:45:23;19.50;32.30
578;DHT22;275;48.492;9.214;2022-07-06T00:47:51;19.60;32.00
578;DHT22;275;48.492;9.214;2022-07-06T00:50:19;19.70;31.90
578;DHT22;275;48.492;9.214;2022-07-06T00:52:51;20.10;31.20
578;DHT22;275;48.492;9.214;2022-07-06T00:55:21;20.10;31.10
578;DHT22;275;48.492;9.214;2022-07-06T00:57:48;20.40;30.70
578;DHT22;275;48.492;9.214;2022-07-06T01:00:18;20.00;31.50
578;DHT22;275;48.492;9.214;2022-07-06T01:02:45;19.20;33.50
578;DHT22;275;48.492;9.214;2022-07-06T01:05:14;19.10;33.80
578;DHT22;275;48.492;9.214;2022-07-06T01:07:42;19.10;33.50
578;DHT22;275;48.492;9.214;2022-07-06T01:10:11;19.10;33.70
578;DHT22;275;48.492;9.214;2022-07-06T01:12:39;18.80;34.30
578;DHT22;275;48.492;9.214;2022-07-06T01:15:09;19.10;33.50
578;DHT22;275;48.492;9.214;2022-07-06T01:17:38;19.40;33.50
578;DHT22;275;48.492;9.214;2022-07-06T01:20:09;19.80;32.00
578;DHT22;275;48.492;9.214;2022-07-06T01:22:36;19.80;31.90
578;DHT22;275;48.492;9.214;2022-07-06T01:25:04;19.90;31.70
578;DHT22;275;48.492;9.214;2022-07-06T01:27:31;20.10;31.40
578;DHT22;275;48.492;9.214;2022-07-06T01:30:00;20.10;31.30
578;DHT22;275;48.492;9.214;2022-07-06T01:32:26;20.10;31.00
578;DHT22;275;48.492;9.214;2022-07-06T01:34:53;19.80;31.70
578;DHT22;275;48.492;9.214;2022-07-06T01:37:21;19.60;32.40
578;DHT22;275;48.492;9.214;2022-07-06T01:39:48;19.40;32.70
578;DHT22;275;48.492;9.214;2022-07-06T01:42:15;19.30;32.80
578;DHT22;275;48.492;9.214;2022-07-06T01:44:42;19.00;33.70
578;DHT22;275;48.492;9.214;2022-07-06T01:47:09;18.90;33.90
578;DHT22;275;48.492;9.214;2022-07-06T01:49:36;19.20;33.30
578;DHT22;275;48.492;9.214;2022-07-06T01:52:03;19.60;32.20
578;DHT22;275;48.492;9.214;2022-07-06T01:54:31;19.60;32.50
578;DHT22;275;48.492;9.214;2022-07-06T01:56:58;19.60;32.20
578;DHT22;275;48.492;9.214;2022-07-06T01:59:25;19.90;31.70
578;DHT22;275;48.492;9.214;2022-07-06T02:01:51;19.80;32.00
578;DHT22;275;48.492;9.214;2022-07-06T02:04:18;19.80;31.70
578;DHT22;275;48.492;9.214;2022-07-06T02:06:45;19.70;32.00
578;DHT22;275;48.492;9.214;2022-07-06T02:09:12;19.50;32.60
578;DHT22;275;48.492;9.214;2022-07-06T02:11:40;19.00;33.80
578;DHT22;275;48.492;9.214;2022-07-06T02:14:07;18.80;34.10
578;DHT22;275;48.492;9.214;2022-07-06T02:16:33;18.60;34.80
578;DHT22;275;48.492;9.214;2022-07-06T02:19:00;18.70;34.60
578;DHT22;275;48.492;9.214;2022-07-06T02:21:27;19.10;33.80
578;DHT22;275;48.492;9.214;2022-07-06T02:23:54;19.50;32.90
578;DHT22;275;48.492;9.214;2022-07-06T02:26:21;19.60;32.80
578;DHT22;275;48.492;9.214;2022-07-06T02:28:49;19.60;32.80
578;DHT22;275;48.492;9.214;2022-07-06T02:31:16;19.10;34.10
578;DHT22;275;48.492;9.214;2022-07-06T02:33:43;19.10;34.00
578;DHT22;275;48.492;9.214;2022-07-06T02:36:10;19.00;34.00
578;DHT22;275;48.492;9.214;2022-07-06T02:38:36;19.10;33.80
578;DHT22;275;48.492;9.214;2022-07-06T02:41:03;19.30;33.40
578;DHT22;275;48.492;9.214;2022-07-06T02:43:30;19.50;33.10
578;DHT22;275;48.492;9.214;2022-07-06T02:45:58;19.40;33.20
578;DHT22;275;48.492;9.214;2022-07-06T02:48:25;18.80;34.70
578;DHT22;275;48.492;9.214;2022-07-06T02:50:52;18.10;36.60
578;DHT22;275;48.492;9.214;2022-07-06T02:53:19;18.00;37.10
578;DHT22;275;48.492;9.214;2022-07-06T02:55:45;18.50;35.90
578;DHT22;275;48.492;9.214;2022-07-06T02:58:12;18.40;36.60
578;DHT22;275;48.492;9.214;2022-07-06T03:00:39;18.60;35.40
578;DHT22;275;48.492;9.214;2022-07-06T03:03:07;18.90;34.80
578;DHT22;275;48.492;9.214;2022-07-06T03:05:34;18.90;34.80
578;DHT22;275;48.492;9.214;2022-07-06T03:08:01;18.70;35.20
578;DHT22;275;48.492;9.214;2022-07-06T03:10:28;19.20;34.40
578;DHT22;275;48.492;9.214;2022-07-06T03:12:54;19.20;34.20
578;DHT22;275;48.492;9.214;2022-07-06T03:15:21;19.20;34.30
578;DHT22;275;48.492;9.214;2022-07-06T03:17:48;19.30;34.00
578;DHT22;275;48.492;9.214;2022-07-06T03:20:16;19.30;33.80
578;DHT22;275;48.492;9.214;2022-07-06T03:22:43;19.20;34.10
578;DHT22;275;48.492;9.214;2022-07-06T03:25:10;18.30;36.20
578;DHT22;275;48.492;9.214;2022-07-06T03:27:37;18.20;36.40
578;DHT22;275;48.492;9.214;2022-07-06T03:30:04;18.40;36.20
578;DHT22;275;48.492;9.214;2022-07-06T03:32:31;18.20;36.60
578;DHT22;275;48.492;9.214;2022-07-06T03:34:58;18.20;36.70
578;DHT22;275;48.492;9.214;2022-07-06T03:37:26;17.70;37.80
578;DHT22;275;48.492;9.214;2022-07-06T03:39:53;17.60;38.20
578;DHT22;275;48.492;9.214;2022-07-06T03:42:19;17.50;38.80
578;DHT22;275;48.492;9.214;2022-07-06T03:44:46;17.40;38.90
578;DHT22;275;48.492;9.214;2022-07-06T03:47:13;17.50;38.90
578;DHT22;275;48.492;9.214;2022-07-06T03:49:40;17.60;38.50
578;DHT22;275;48.492;9.214;2022-07-06T03:52:06;18.00;37.70
578;DHT22;275;48.492;9.214;2022-07-06T03:54:34;18.40;36.70
578;DHT22;275;48.492;9.214;2022-07-06T03:57:01;18.40;36.30
578;DHT22;275;48.492;9.214;2022-07-06T03:59:28;17.90;37.70
578;DHT22;275;48.492;9.214;2022-07-06T04:01:55;17.40;38.90
578;DHT22;275;48.492;9.214;2022-07-06T04:04:22;17.30;39.40
578;DHT22;275;48.492;9.214;2022-07-06T04:06:48;17.40;39.30
578;DHT22;275;48.492;9.214;2022-07-06T04:09:15;17.70;38.50
578;DHT22;275;48.492;9.214;2022-07-06T04:11:43;18.20;37.00
578;DHT22;275;48.492;9.214;2022-07-06T04:14:10;18.40;36.80
578;DHT22;275;48.492;9.214;2022-07-06T04:16:37;18.40;36.80
578;DHT22;275;48.492;9.214;2022-07-06T04:19:03;18.90;35.90
578;DHT22;275;48.492;9.214;2022-07-06T04:21:30;19.70;33.90
578;DHT22;275;48.492;9.214;2022-07-06T04:23:57;20.20;32.50
578;DHT22;275;48.492;9.214;2022-07-06T04:26:24;20.00;32.90
578;DHT22;275;48.492;9.214;2022-07-06T04:28:52;19.00;35.10
578;DHT22;275;48.492;9.214;2022-07-06T04:31:19;19.10;35.40
578;DHT22;275;48.492;9.214;2022-07-06T04:33:45;20.10;33.00
578;DHT22;275;48.492;9.214;2022-07-06T04:36:12;20.70;31.70
578;DHT22;275;48.492;9.214;2022-07-06T04:38:39;20.70;31.70
578;DHT22;275;48.492;9.214;2022-07-06T04:41:06;21.00;31.10
578;DHT22;275;48.492;9.214;2022-07-06T04:43:33;21.50;30.00
578;DHT22;275;48.492;9.214;2022-07-06T04:46:01;21.30;30.10
578;DHT22;275;48.492;9.214;2022-07-06T04:48:28;21.00;30.80
578;DHT22;275;48.492;9.214;2022-07-06T04:50:55;20.80;31.10
578;DHT22;275;48.492;9.214;2022-07-06T04:53:21;20.90;30.90
578;DHT22;275;48.492;9.214;2022-07-06T04:55:48;21.50;30.00
578;DHT22;275;48.492;9.214;2022-07-06T04:58:15;22.10;29.00
578;DHT22;275;48.492;9.214;2022-07-06T05:00:42;22.70;28.20
578;DHT22;275;48.492;9.214;2022-07-06T05:03:10;23.00;27.80
578;DHT22;275;48.492;9.214;2022-07-06T05:05:36;22.70;28.10
578;DHT22;275;48.492;9.214;2022-07-06T05:08:04;22.60;28.30
578;DHT22;275;48.492;9.214;2022-07-06T05:10:30;23.10;27.70
578;DHT22;275;48.492;9.214;2022-07-06T05:12:57;24.00;26.70
578;DHT22;275;48.492;9.214;2022-07-06T05:15:24;25.20;25.00
578;DHT22;275;48.492;9.214;2022-07-06T05:17:51;25.50;24.60
578;DHT22;275;48.492;9.214;2022-07-06T05:20:19;25.90;23.60
578;DHT22;275;48.492;9.214;2022-07-06T05:22:46;26.30;23.00
578;DHT22;275;48.492;9.214;2022-07-06T05:25:13;26.20;23.10
578;DHT22;275;48.492;9.214;2022-07-06T05:27:40;26.70;22.50
578;DHT22;275;48.492;9.214;2022-07-06T05:30:07;26.80;22.40
578;DHT22;275;48.492;9.214;2022-07-06T05:32:34;26.40;22.50
578;DHT22;275;48.492;9.214;2022-07-06T05:35:01;26.50;22.60
578;DHT22;275;48.492;9.214;2022-07-06T05:39:57;26.70;22.00
578;DHT22;275;48.492;9.214;2022-07-06T05:42:24;26.60;22.00
578;DHT22;275;48.492;9.214;2022-07-06T05:44:54;26.30;22.40
578;DHT22;275;48.492;9.214;2022-07-06T05:47:21;26.20;22.40
578;DHT22;275;48.492;9.214;2022-07-06T05:50:06;26.40;22.20
578;DHT22;275;48.492;9.214;2022-07-06T05:52:39;26.90;21.50
578;DHT22;275;48.492;9.214;2022-07-06T05:55:08;26.70;22.00
578;DHT22;275;48.492;9.214;2022-07-06T05:57:35;26.80;21.50
578;DHT22;275;48.492;9.214;2022-07-06T06:00:03;26.70;21.90
578;DHT22;275;48.492;9.214;2022-07-06T06:02:37;27.50;20.80
578;DHT22;275;48.492;9.214;2022-07-06T06:05:05;28.40;20.00
578;DHT22;275;48.492;9.214;2022-07-06T06:07:33;29.20;19.10
578;DHT22;275;48.492;9.214;2022-07-06T06:10:01;29.40;18.80
578;DHT22;275;48.492;9.214;2022-07-06T06:12:29;29.40;19.10
578;DHT22;275;48.492;9.214;2022-07-06T06:14:56;29.60;18.40
578;DHT22;275;48.492;9.214;2022-07-06T06:17:23;29.60;18.70
578;DHT22;275;48.492;9.214;2022-07-06T06:19:49;28.70;19.60
578;DHT22;275;48.492;9.214;2022-07-06T06:22:16;27.10;21.30
578;DHT22;275;48.492;9.214;2022-07-06T06:24:43;26.80;21.50
578;DHT22;275;48.492;9.214;2022-07-06T06:27:10;25.50;23.00
578;DHT22;275;48.492;9.214;2022-07-06T06:29:38;24.40;24.20
578;DHT22;275;48.492;9.214;2022-07-06T06:32:07;24.80;24.20
578;DHT22;275;48.492;9.214;2022-07-06T06:34:34;24.90;24.00
578;DHT22;275;48.492;9.214;2022-07-06T06:37:00;24.50;24.60
578;DHT22;275;48.492;9.214;2022-07-06T06:39:27;24.30;25.00
578;DHT22;275;48.492;9.214;2022-07-06T06:41:54;24.20;25.40
578;DHT22;275;48.492;9.214;2022-07-06T06:44:21;24.10;25.20
578;DHT22;275;48.492;9.214;2022-07-06T06:46:50;24.30;25.00
578;DHT22;275;48.492;9.214;2022-07-06T06:49:17;23.90;25.40
578;DHT22;275;48.492;9.214;2022-07-06T06:51:44;22.90;27.10
578;DHT22;275;48.492;9.214;2022-07-06T06:54:11;23.10;26.90
578;DHT22;275;48.492;9.214;2022-07-06T06:56:38;23.40;26.40
578;DHT22;275;48.492;9.214;2022-07-06T06:59:05;23.40;26.40
578;DHT22;275;48.492;9.214;2022-07-06T07:01:31;23.30;26.60
578;DHT22;275;48.492;9.214;2022-07-06T07:04:00;22.60;27.60
578;DHT22;275;48.492;9.214;2022-07-06T07:06:27;22.30;28.10
578;DHT22;275;48.492;9.214;2022-07-06T07:08:53;22.20;28.00
578;DHT22;275;48.492;9.214;2022-07-06T07:11:21;22.50;27.70
578;DHT22;275;48.492;9.214;2022-07-06T07:13:48;22.70;27.10
578;DHT22;275;48.492;9.214;2022-07-06T07:16:15;22.40;27.70
578;DHT22;275;48.492;9.214;2022-07-06T07:18:42;22.80;27.40
578;DHT22;275;48.492;9.214;2022-07-06T07:21:10;22.50;27.90
578;DHT22;275;48.492;9.214;2022-07-06T07:23:37;23.00;27.70
578;DHT22;275;48.492;9.214;2022-07-06T07:26:03;24.90;25.90
578;DHT22;275;48.492;9.214;2022-07-06T07:28:30;26.80;23.50
578;DHT22;275;48.492;9.214;2022-07-06T07:30:57;28.50;20.90
578;DHT22;275;48.492;9.214;2022-07-06T07:33:24;29.50;20.00
578;DHT22;275;48.492;9.214;2022-07-06T07:35:51;30.20;19.00
578;DHT22;275;48.492;9.214;2022-07-06T07:38:19;31.40;18.00
578;DHT22;275;48.492;9.214;2022-07-06T07:40:45;32.20;17.00
578;DHT22;275;48.492;9.214;2022-07-06T07:43:12;32.50;16.50
578;DHT22;275;48.492;9.214;2022-07-06T07:45:39;31.70;17.00
578;DHT22;275;48.492;9.214;2022-07-06T07:48:06;31.40;17.50
578;DHT22;275;48.492;9.214;2022-07-06T07:50:33;30.60;18.70
578;DHT22;275;48.492;9.214;2022-07-06T07:53:00;29.80;19.20
578;DHT22;275;48.492;9.214;2022-07-06T07:55:29;31.70;17.40
578;DHT22;275;48.492;9.214;2022-07-06T07:57:55;33.10;16.00
578;DHT22;275;48.492;9.214;2022-07-06T08:00:22;34.00;14.80
578;DHT22;275;48.492;9.214;2022-07-06T08:02:50;33.30;15.30
578;DHT22;275;48.492;9.214;2022-07-06T08:05:16;34.50;14.40
578;DHT22;275;48.492;9.214;2022-07-06T08:07:44;35.00;13.70
578;DHT22;275;48.492;9.214;2022-07-06T08:10:11;35.30;13.40
578;DHT22;275;48.492;9.214;2022-07-06T08:12:39;35.40;12.90
578;DHT22;275;48.492;9.214;2022-07-06T08:15:07;33.70;14.60
578;DHT22;275;48.492;9.214;2022-07-06T08:17:34;34.10;14.30
578;DHT22;275;48.492;9.214;2022-07-06T08:20:01;33.70;14.60
578;DHT22;275;48.492;9.214;2022-07-06T08:22:27;34.30;13.90
578;DHT22;275;48.492;9.214;2022-07-06T08:24:55;34.80;13.50
578;DHT22;275;48.492;9.214;2022-07-06T08:27:23;35.00;13.30
578;DHT22;275;48.492;9.214;2022-07-06T08:29:51;35.90;12.90
578;DHT22;275;48.492;9.214;2022-07-06T08:32:18;36.40;12.20
578;DHT22;275;48.492;9.214;2022-07-06T08:34:46;35.80;12.80
578;DHT22;275;48.492;9.214;2022-07-06T08:37:13;35.90;12.60
578;DHT22;275;48.492;9.214;2022-07-06T08:39:40;36.30;12.00
578;DHT22;275;48.492;9.214;2022-07-06T08:42:07;37.50;11.20
578;DHT22;275;48.492;9.214;2022-07-06T08:44:36;37.80;10.70
578;DHT22;275;48.492;9.214;2022-07-06T08:47:06;38.80;9.80
578;DHT22;275;48.492;9.214;2022-07-06T08:49:34;37.10;11.00
578;DHT22;275;48.492;9.214;2022-07-06T08:52:03;37.50;10.80
578;DHT22;275;48.492;9.214;2022-07-06T08:54:30;36.60;11.10
578;DHT22;275;48.492;9.214;2022-07-06T08:56:57;34.60;12.80
578;DHT22;275;48.492;9.214;2022-07-06T08:59:25;34.60;13.60
578;DHT22;275;48.492;9.214;2022-07-06T09:01:54;35.40;12.90
578;DHT22;275;48.492;9.214;2022-07-06T09:04:22;37.50;10.50
578;DHT22;275;48.492;9.214;2022-07-06T09:06:50;37.80;10.20
578;DHT22;275;48.492;9.214;2022-07-06T09:09:20;38.40;9.90
578;DHT22;275;48.492;9.214;2022-07-06T09:11:48;39.10;9.10
578;DHT22;275;48.492;9.214;2022-07-06T09:14:15;39.00;9.10
578;DHT22;275;48.492;9.214;2022-07-06T09:16:43;39.40;9.00
578;DHT22;275;48.492;9.214;2022-07-06T09:19:11;38.10;9.80
578;DHT22;275;48.492;9.214;2022-07-06T09:21:40;37.30;10.50
578;DHT22;275;48.492;9.214;2022-07-06T09:24:09;36.90;10.80
578;DHT22;275;48.492;9.214;2022-07-06T09:26:37;37.60;10.30
578;DHT22;275;48.492;9.214;2022-07-06T09:29:04;39.30;9.00
578;DHT22;275;48.492;9.214;2022-07-06T09:31:32;40.50;8.20
578;DHT22;275;48.492;9.214;2022-07-06T09:34:01;39.20;8.10
578;DHT22;275;48.492;9.214;2022-07-06T09:36:42;37.50;9.80
578;DHT22;275;48.492;9.214;2022-07-06T09:39:21;38.90;8.70
578;DHT22;275;48.492;9.214;2022-07-06T09:41:49;39.80;8.00
578;DHT22;275;48.492;9.214;2022-07-06T09:44:21;39.50;8.30
578;DHT22;275;48.492;9.214;2022-07-06T09:46:48;38.00;9.20
578;DHT22;275;48.492;9.214;2022-07-06T09:49:19;37.50;9.60
578;DHT22;275;48.492;9.214;2022-07-06T09:51:49;37.90;9.40
578;DHT22;275;48.492;9.214;2022-07-06T09:54:16;37.90;9.20
578;DHT22;275;48.492;9.214;2022-07-06T09:56:45;36.60;9.90
578;DHT22;275;48.492;9.214;2022-07-06T09:59:17;37.00;9.30
578;DHT22;275;48.492;9.214;2022-07-06T10:01:44;34.30;11.20
578;DHT22;275;48.492;9.214;2022-07-06T10:04:13;32.90;12.60
578;DHT22;275;48.492;9.214;2022-07-06T10:06:41;32.80;13.00
578;DHT22;275;48.492;9.214;2022-07-06T10:09:10;34.50;12.00
578;DHT22;275;48.492;9.214;2022-07-06T10:11:39;36.60;10.40
578;DHT22;275;48.492;9.214;2022-07-06T10:14:07;37.80;8.60
578;DHT22;275;48.492;9.214;2022-07-06T10:16:36;35.30;9.80
578;DHT22;275;48.492;9.214;2022-07-06T10:19:05;33.30;12.10
578;DHT22;275;48.492;9.214;2022-07-06T10:21:32;34.20;11.90
578;DHT22;275;48.492;9.214;2022-07-06T10:24:01;34.60;11.30
578;DHT22;275;48.492;9.214;2022-07-06T10:26:29;36.30;10.40
578;DHT22;275;48.492;9.214;2022-07-06T10:28:58;37.00;9.60
578;DHT22;275;48.492;9.214;2022-07-06T10:31:25;36.50;9.30
578;DHT22;275;48.492;9.214;2022-07-06T10:33:54;35.90;9.90
578;DHT22;275;48.492;9.214;2022-07-06T10:36:22;35.50;10.80
578;DHT22;275;48.492;9.214;2022-07-06T10:38:51;37.60;8.60
578;DHT22;275;48.492;9.214;2022-07-06T10:41:18;38.80;7.90
578;DHT22;275;48.492;9.214;2022-07-06T10:43:57;37.20;8.90
578;DHT22;275;48.492;9.214;2022-07-06T10:46:28;34.10;11.50
578;DHT22;275;48.492;9.214;2022-07-06T10:48:56;32.30;13.20
578;DHT22;275;48.492;9.214;2022-07-06T10:51:24;30.80;14.80
578;DHT22;275;48.492;9.214;2022-07-06T10:53:56;30.70;15.40
578;DHT22;275;48.492;9.214;2022-07-06T10:56:33;30.80;15.00
578;DHT22;275;48.492;9.214;2022-07-06T10:59:09;30.70;15.00
578;DHT22;275;48.492;9.214;2022-07-06T11:01:37;31.70;13.90
578;DHT22;275;48.492;9.214;2022-07-06T11:04:08;33.00;12.50
578;DHT22;275;48.492;9.214;2022-07-06T11:06:37;34.90;11.00
578;DHT22;275;48.492;9.214;2022-07-06T11:09:06;37.00;9.00
578;DHT22;275;48.492;9.214;2022-07-06T11:11:41;38.90;7.40
578;DHT22;275;48.492;9.214;2022-07-06T11:14:13;38.50;6.70
578;DHT22;275;48.492;9.214;2022-07-06T11:17:00;35.80;9.00
578;DHT22;275;48.492;9.214;2022-07-06T11:19:28;32.90;12.70
578;DHT22;275;48.492;9.214;2022-07-06T11:21:56;31.30;14.80
578;DHT22;275;48.492;9.214;2022-07-06T11:24:26;31.40;15.30
578;DHT22;275;48.492;9.214;2022-07-06T11:26:54;33.30;12.50
578;DHT22;275;48.492;9.214;2022-07-06T11:29:24;33.20;12.00
578;DHT22;275;48.492;9.214;2022-07-06T11:31:53;34.30;11.30
578;DHT22;275;48.492;9.214;2022-07-06T11:34:21;35.20;10.50
578;DHT22;275;48.492;9.214;2022-07-06T11:36:49;35.80;10.70
578;DHT22;275;48.492;9.214;2022-07-06T11:39:16;34.50;12.00
578;DHT22;275;48.492;9.214;2022-07-06T11:41:43;33.50;12.50
578;DHT22;275;48.492;9.214;2022-07-06T11:44:10;33.50;12.50
578;DHT22;275;48.492;9.214;2022-07-06T11:46:38;32.00;14.10
578;DHT22;275;48.492;9.214;2022-07-06T11:49:06;31.10;15.30
578;DHT22;275;48.492;9.214;2022-07-06T11:51:35;30.10;17.00
578;DHT22;275;48.492;9.214;2022-07-06T11:54:11;30.20;16.30
578;DHT22;275;48.492;9.214;2022-07-06T11:56:45;29.60;16.90
578;DHT22;275;48.492;9.214;2022-07-06T11:59:12;29.10;17.60
578;DHT22;275;48.492;9.214;2022-07-06T12:01:41;28.80;17.90
578;DHT22;275;48.492;9.214;2022-07-06T12:04:10;27.80;19.10
578;DHT22;275;48.492;9.214;2022-07-06T12:06:37;27.40;19.50
578;DHT22;275;48.492;9.214;2022-07-06T12:09:04;28.50;18.20
578;DHT22;275;48.492;9.214;2022-07-06T12:11:33;29.40;17.50
578;DHT22;275;48.492;9.214;2022-07-06T12:14:02;28.60;18.10
578;DHT22;275;48.492;9.214;2022-07-06T12:16:38;27.70;19.10
578;DHT22;275;48.492;9.214;2022-07-06T12:19:06;27.90;19.50
578;DHT22;275;48.492;9.214;2022-07-06T12:21:34;30.10;17.40
578;DHT22;275;48.492;9.214;2022-07-06T12:24:01;32.10;15.10
578;DHT22;275;48.492;9.214;2022-07-06T12:26:39;31.80;14.90
578;DHT22;275;48.492;9.214;2022-07-06T12:29:07;33.60;13.40
578;DHT22;275;48.492;9.214;2022-07-06T12:31:36;35.10;11.80
578;DHT22;275;48.492;9.214;2022-07-06T12:34:11;35.60;11.10
578;DHT22;275;48.492;9.214;2022-07-06T12:36:42;37.10;9.80
578;DHT22;275;48.492;9.214;2022-07-06T12:39:11;36.30;10.50
578;DHT22;275;48.492;9.214;2022-07-06T12:41:44;36.90;10.00
578;DHT22;275;48.492;9.214;2022-07-06T12:44:11;36.20;10.60
578;DHT22;275;48.492;9.214;2022-07-06T12:46:39;36.00;10.90
578;DHT22;275;48.492;9.214;2022-07-06T12:49:16;33.10;13.80
578;DHT22;275;48.492;9.214;2022-07-06T12:51:56;32.50;15.00
578;DHT22;275;48.492;9.214;2022-07-06T12:54:25;32.40;14.70
578;DHT22;275;48.492;9.214;2022-07-06T12:57:09;31.10;16.30
578;DHT22;275;48.492;9.214;2022-07-06T12:59:39;30.20;17.50
578;DHT22;275;48.492;9.214;2022-07-06T13:02:08;29.20;18.60
578;DHT22;275;48.492;9.214;2022-07-06T13:04:37;27.60;20.60
578;DHT22;275;48.492;9.214;2022-07-06T13:07:04;28.30;19.90
578;DHT22;275;48.492;9.214;2022-07-06T13:09:31;27.20;21.30
578;DHT22;275;48.492;9.214;2022-07-06T13:11:58;27.10;21.90
578;DHT22;275;48.492;9.214;2022-07-06T13:14:25;27.60;21.00
578;DHT22;275;48.492;9.214;2022-07-06T13:16:52;27.00;21.60
578;DHT22;275;48.492;9.214;2022-07-06T13:19:20;26.60;22.30
578;DHT22;275;48.492;9.214;2022-07-06T13:21:48;26.70;22.20
578;DHT22;275;48.492;9.214;2022-07-06T13:24:15;27.20;22.00
578;DHT22;275;48.492;9.214;2022-07-06T13:26:42;27.00;22.10
578;DHT22;275;48.492;9.214;2022-07-06T13:29:10;27.50;21.50
578;DHT22;275;48.492;9.214;2022-07-06T13:31:38;28.30;20.80
578;DHT22;275;48.492;9.214;2022-07-06T13:34:05;28.30;20.90
578;DHT22;275;48.492;9.214;2022-07-06T13:36:33;27.50;21.80
578;DHT22;275;48.492;9.214;2022-07-06T13:39:01;27.00;22.80
578;DHT22;275;48.492;9.214;2022-07-06T13:41:28;26.80;22.40
578;DHT22;275;48.492;9.214;2022-07-06T13:43:55;27.00;22.50
578;DHT22;275;48.492;9.214;2022-07-06T13:46:22;26.80;22.90
578;DHT22;275;48.492;9.214;2022-07-06T13:48:49;27.40;22.10
578;DHT22;275;48.492;9.214;2022-07-06T13:51:16;27.10;22.20
578;DHT22;275;48.492;9.214;2022-07-06T13:53:43;27.20;21.80
578;DHT22;275;48.492;9.214;2022-07-06T13:56:12;27.20;22.30
578;DHT22;275;48.492;9.214;2022-07-06T13:58:51;26.80;22.70
578;DHT22;275;48.492;9.214;2022-07-06T14:01:18;25.90;23.90
578;DHT22;275;48.492;9.214;2022-07-06T14:03:45;25.80;24.00
578;DHT22;275;48.492;9.214;2022-07-06T14:06:12;25.90;23.90
578;DHT22;275;48.492;9.214;2022-07-06T14:08:40;26.30;23.00
578;DHT22;275;48.492;9.214;2022-07-06T14:11:08;26.80;22.90
578;DHT22;275;48.492;9.214;2022-07-06T14:13:37;27.40;22.20
578;DHT22;275;48.492;9.214;2022-07-06T14:16:05;27.70;21.30
578;DHT22;275;48.492;9.214;2022-07-06T14:18:33;27.80;21.50
578;DHT22;275;48.492;9.214;2022-07-06T14:21:00;27.80;21.60
578;DHT22;275;48.492;9.214;2022-07-06T14:23:27;28.40;20.60
578;DHT22;275;48.492;9.214;2022-07-06T14:25:55;28.20;20.70
578;DHT22;275;48.492;9.214;2022-07-06T14:28:22;27.90;21.30
578;DHT22;275;48.492;9.214;2022-07-06T14:30:50;26.50;23.10
578;DHT22;275;48.492;9.214;2022-07-06T14:33:17;26.60;23.00
578;DHT22;275;48.492;9.214;2022-07-06T14:35:46;26.80;22.40
578;DHT22;275;48.492;9.214;2022-07-06T14:38:14;27.30;22.40
578;DHT22;275;48.492;9.214;2022-07-06T14:40:41;26.50;23.30
578;DHT22;275;48.492;9.214;2022-07-06T14:43:09;26.60;23.20
578;DHT22;275;48.492;9.214;2022-07-06T14:45:37;26.80;22.80
578;DHT22;275;48.492;9.214;2022-07-06T14:48:06;26.70;23.00
578;DHT22;275;48.492;9.214;2022-07-06T14:50:33;26.00;24.00
578;DHT22;275;48.492;9.214;2022-07-06T14:53:01;26.60;23.10
578;DHT22;275;48.492;9.214;2022-07-06T14:55:27;27.10;22.40
578;DHT22;275;48.492;9.214;2022-07-06T14:57:54;27.30;21.70
578;DHT22;275;48.492;9.214;2022-07-06T15:00:21;27.80;21.00
578;DHT22;275;48.492;9.214;2022-07-06T15:02:48;27.80;20.90
578;DHT22;275;48.492;9.214;2022-07-06T15:05:16;27.50;21.00
578;DHT22;275;48.492;9.214;2022-07-06T15:07:43;27.30;21.50
578;DHT22;275;48.492;9.214;2022-07-06T15:10:10;27.00;21.60
578;DHT22;275;48.492;9.214;2022-07-06T15:12:37;26.40;22.40
578;DHT22;275;48.492;9.214;2022-07-06T15:15:05;26.20;22.40
578;DHT22;275;48.492;9.214;2022-07-06T15:17:32;26.70;22.10
578;DHT22;275;48.492;9.214;2022-07-06T15:19:59;26.90;21.80
578;DHT22;275;48.492;9.214;2022-07-06T15:22:27;26.90;21.70
578;DHT22;275;48.492;9.214;2022-07-06T15:24:54;27.00;21.50
578;DHT22;275;48.492;9.214;2022-07-06T15:27:21;26.90;21.70
578;DHT22;275;48.492;9.214;2022-07-06T15:29:48;26.60;22.10
578;DHT22;275;48.492;9.214;2022-07-06T15:32:15;26.80;21.80
578;DHT22;275;48.492;9.214;2022-07-06T15:34:42;26.70;21.80
578;DHT22;275;48.492;9.214;2022-07-06T15:37:08;26.80;21.40
578;DHT22;275;48.492;9.214;2022-07-06T15:39:37;26.70;21.40
578;DHT22;275;48.492;9.214;2022-07-06T15:42:04;26.80;21.40
578;DHT22;275;48.492;9.214;2022-07-06T15:44:31;26.30;22.20
578;DHT22;275;48.492;9.214;2022-07-06T15:47:03;27.40;20.80
578;DHT22;275;48.492;9.214;2022-07-06T15:49:31;27.30;20.80
578;DHT22;275;48.492;9.214;2022-07-06T15:51:58;27.20;20.90
578;DHT22;275;48.492;9.214;2022-07-06T15:54:25;27.50;20.20
578;DHT22;275;48.492;9.214;2022-07-06T15:56:53;27.00;21.00
578;DHT22;275;48.492;9.214;2022-07-06T15:59:20;26.80;20.80
578;DHT22;275;48.492;9.214;2022-07-06T16:01:48;27.10;20.60
578;DHT22;275;48.492;9.214;2022-07-06T16:04:15;27.00;20.60
578;DHT22;275;48.492;9.214;2022-07-06T16:06:42;27.30;20.50
578;DHT22;275;48.492;9.214;2022-07-06T16:09:08;27.30;20.50
578;DHT22;275;48.492;9.214;2022-07-06T16:11:35;27.80;20.00
578;DHT22;275;48.492;9.214;2022-07-06T16:14:04;28.00;19.70
578;DHT22;275;48.492;9.214;2022-07-06T16:16:30;27.50;20.40
578;DHT22;275;48.492;9.214;2022-07-06T16:18:58;26.80;21.60
578;DHT22;275;48.492;9.214;2022-07-06T16:21:25;26.60;21.20
578;DHT22;275;48.492;9.214;2022-07-06T16:23:52;27.30;20.30
578;DHT22;275;48.492;9.214;2022-07-06T16:26:19;26.90;20.60
578;DHT22;275;48.492;9.214;2022-07-06T16:28:45;26.60;20.90
578;DHT22;275;48.492;9.214;2022-07-06T16:31:14;26.80;20.60
578;DHT22;275;48.492;9.214;2022-07-06T16:33:41;26.80;20.40
578;DHT22;275;48.492;9.214;2022-07-06T16:36:08;27.10;20.20
578;DHT22;275;48.492;9.214;2022-07-06T16:38:37;26.90;20.60
578;DHT22;275;48.492;9.214;2022-07-06T16:41:05;26.80;20.80
578;DHT22;275;48.492;9.214;2022-07-06T16:43:32;26.20;21.70